createdAt,value
2019-04-22T00:00:12.725Z,101108.72
2019-04-22T00:02:52.548Z,101106.12
2019-04-22T00:05:41.490Z,101101.04
2019-04-22T00:08:21.005Z,101099.20
2019-04-22T00:10:48.699Z,101094.25
2019-04-22T00:13:25.883Z,101095.81
2019-04-22T00:15:54.135Z,101094.66
2019-04-22T00:18:40.467Z,101070.44
2019-04-22T00:20:57.970Z,101092.16
2019-04-22T00:23:23.455Z,101084.67
2019-04-22T00:26:05.227Z,101089.82
2019-04-22T00:28:30.565Z,101091.64
2019-04-22T00:31:16.966Z,101091.88
2019-04-22T00:33:45.545Z,101086.78
2019-04-22T00:36:24.124Z,101085.08
2019-04-22T00:38:54.496Z,101089.09
2019-04-22T00:41:29.705Z,101082.92
2019-04-22T00:46:31.590Z,101081.33
2019-04-22T00:49:48.631Z,101083.85
2019-04-22T00:51:40.125Z,101083.72
2019-04-22T00:54:03.391Z,101085.58
2019-04-22T00:56:35.666Z,101083.55
2019-04-22T00:59:06.772Z,101083.70
2019-04-22T01:01:41.050Z,101087.89
2019-04-22T01:04:14.233Z,101081.85
2019-04-22T01:06:41.645Z,101085.78
2019-04-22T01:09:10.932Z,101079.25
2019-04-22T01:11:50.541Z,101080.65
2019-04-22T01:14:20.331Z,101071.77
2019-04-22T01:16:50.912Z,101075.19
2019-04-22T01:19:23.550Z,101070.55
2019-04-22T01:21:56.376Z,101068.92
2019-04-22T01:24:22.161Z,101066.12
2019-04-22T01:26:49.262Z,101064.95
2019-04-22T01:29:14.682Z,101059.09
2019-04-22T01:31:39.917Z,101063.45
2019-04-22T01:34:23.314Z,101060.30
2019-04-22T01:36:57.805Z,101056.73
2019-04-22T01:39:37.813Z,101052.05
2019-04-22T01:42:05.678Z,101057.32
2019-04-22T01:44:42.207Z,101049.44
2019-04-22T01:47:23.225Z,101049.70
2019-04-22T01:49:46.381Z,101052.95
2019-04-22T01:52:18.644Z,101041.09
2019-04-22T01:55:02.177Z,101041.45
2019-04-22T01:57:20.769Z,101043.30
2019-04-22T01:59:45.902Z,101041.19
2019-04-22T02:02:25.532Z,101035.88
2019-04-22T02:04:59.938Z,101034.08
2019-04-22T02:07:32.382Z,101035.19
2019-04-22T02:10:26.865Z,101032.17
2019-04-22T02:12:32.068Z,101031.27
2019-04-22T02:15:05.667Z,101032.08
2019-04-22T02:17:42.509Z,101030.03
2019-04-22T02:23:40.904Z,101033.58
2019-04-22T02:25:56.455Z,101028.08
2019-04-22T02:28:32.560Z,101032.30
2019-04-22T02:33:58.539Z,101029.58
2019-04-22T02:36:19.135Z,101033.44
2019-04-22T02:48:53.425Z,101027.55
2019-04-22T02:54:17.248Z,101007.83
2019-04-22T02:56:27.311Z,101010.83
2019-04-22T03:06:32.839Z,100997.30
2019-04-22T03:08:53.811Z,100987.98
2019-04-22T03:11:31.120Z,100987.30
2019-04-22T03:16:31.865Z,100988.13
2019-04-22T03:21:33.882Z,100980.05
2019-04-22T03:24:18.025Z,100982.78
2019-04-22T03:29:04.708Z,100985.80
2019-04-22T03:42:17.436Z,100975.55
2019-04-22T03:44:54.323Z,100968.97
2019-04-22T03:47:24.014Z,100953.05
2019-04-22T03:49:45.354Z,100973.65
2019-04-22T03:52:18.813Z,100979.62
2019-04-22T03:54:46.285Z,100975.91
2019-04-22T03:59:48.087Z,100975.30
2019-04-22T04:02:29.345Z,100978.36
2019-04-22T04:04:49.555Z,100978.20
2019-04-22T04:07:30.813Z,100964.19
2019-04-22T04:10:02.224Z,100969.91
2019-04-22T04:12:28.291Z,100969.91
2019-04-22T04:15:11.674Z,100969.98
2019-04-22T04:17:29.766Z,100969.36
2019-04-22T04:20:23.287Z,100966.16
2019-04-22T04:25:19.232Z,100962.09
2019-04-22T04:27:54.090Z,100963.42
2019-04-22T04:30:14.876Z,100963.48
2019-04-22T04:35:32.274Z,100963.16
2019-04-22T04:42:46.282Z,100956.66
2019-04-22T04:55:30.479Z,100976.06
2019-04-22T04:58:03.480Z,100970.82
2019-04-22T05:13:07.121Z,100973.82
2019-04-22T05:20:53.358Z,100966.67
2019-04-22T05:23:14.221Z,100962.97
2019-04-22T05:25:33.317Z,100965.34
2019-04-22T05:28:11.744Z,100966.30
2019-04-22T05:30:40.785Z,100967.47
2019-04-22T05:33:19.118Z,100964.81
2019-04-22T05:35:46.097Z,100962.86
2019-04-22T05:40:54.201Z,100964.81
2019-04-22T05:43:21.303Z,100964.72
2019-04-22T05:45:50.961Z,100956.82
2019-04-22T05:48:30.575Z,100960.11
2019-04-22T05:51:01.120Z,100955.02
2019-04-22T05:53:41.878Z,100959.75
2019-04-22T05:56:15.417Z,100959.70
2019-04-22T05:58:47.905Z,100958.52
2019-04-22T06:03:52.876Z,100956.50
2019-04-22T06:08:53.742Z,100965.35
2019-04-22T06:11:25.777Z,100966.22
2019-04-22T06:13:51.983Z,100967.39
2019-04-22T06:16:31.091Z,100964.27
2019-04-22T06:19:03.141Z,100968.63
2019-04-22T06:24:10.590Z,100899.05
2019-04-22T06:26:45.843Z,100967.51
2019-04-22T06:32:05.535Z,100969.16
2019-04-22T06:34:20.847Z,100964.98
2019-04-22T06:39:29.477Z,100979.90
2019-04-22T06:42:01.018Z,100966.87
2019-04-22T06:44:29.908Z,100969.50
2019-04-22T06:47:05.257Z,100970.91
2019-04-22T06:49:35.629Z,100968.13
2019-04-22T06:52:17.916Z,100972.05
2019-04-22T06:54:44.535Z,100964.82
2019-04-22T06:57:05.867Z,100963.05
2019-04-22T06:59:36.282Z,100963.57
2019-04-22T07:02:20.101Z,100963.95
2019-04-22T07:04:45.014Z,100960.78
2019-04-22T07:07:22.121Z,100964.48
2019-04-22T07:09:57.443Z,100963.05
2019-04-22T07:12:24.301Z,100961.43
2019-04-22T07:14:53.506Z,100964.07
2019-04-22T07:17:30.985Z,100951.42
2019-04-22T07:20:02.050Z,100949.77
2019-04-22T07:22:28.188Z,100953.45
2019-04-22T07:24:59.061Z,100948.34
2019-04-22T07:27:27.825Z,100945.58
2019-04-22T07:30:09.317Z,100948.33
2019-04-22T07:35:08.474Z,100937.93
2019-04-22T07:37:45.270Z,100935.27
2019-04-22T07:40:13.796Z,100931.03
2019-04-22T07:42:45.785Z,100925.42
2019-04-22T07:45:22.626Z,100932.03
2019-04-22T07:47:44.367Z,100924.42
2019-04-22T07:50:26.745Z,100926.30
2019-04-22T07:52:47.005Z,100928.16
2019-04-22T07:55:24.411Z,100925.22
2019-04-22T07:57:51.881Z,100925.14
2019-04-22T08:00:22.722Z,100929.95
2019-04-22T08:03:01.299Z,100932.83
2019-04-22T08:05:37.936Z,100925.38
2019-04-22T08:08:11.515Z,100923.36
2019-04-22T08:10:40.099Z,100925.37
2019-04-22T08:13:04.921Z,100919.77
2019-04-22T08:15:40.110Z,100920.56
2019-04-22T08:20:41.428Z,100921.34
2019-04-22T08:25:42.900Z,100925.12
2019-04-22T08:28:19.070Z,100925.39
2019-04-22T08:33:21.568Z,100916.60
2019-04-22T08:38:37.267Z,100916.55
2019-04-22T08:41:24.841Z,100918.63
2019-04-22T08:43:47.687Z,100925.09
2019-04-22T08:46:24.115Z,100918.84
2019-04-22T08:48:52.906Z,100920.74
2019-04-22T08:56:38.931Z,100907.08
2019-04-22T08:59:06.556Z,100915.91
2019-04-22T09:01:30.125Z,100901.66
2019-04-22T09:09:06.205Z,100898.04
2019-04-22T09:14:13.931Z,100891.74
2019-04-22T09:16:46.346Z,100893.05
2019-04-22T09:19:22.529Z,100897.81
2019-04-22T09:21:45.571Z,100883.42
2019-04-22T09:29:22.464Z,100881.71
2019-04-22T09:31:53.974Z,100880.72
2019-04-22T09:34:22.510Z,100881.77
2019-04-22T09:36:59.440Z,100876.00
2019-04-22T09:39:26.594Z,100876.23
2019-04-22T09:41:57.229Z,100878.31
2019-04-22T09:44:30.865Z,100875.41
2019-04-22T09:47:00.033Z,100866.97
2019-04-22T09:49:36.845Z,100861.84
2019-04-22T09:52:08.462Z,100860.79
2019-04-22T09:57:01.885Z,100857.60
2019-04-22T09:59:48.481Z,100846.34
2019-04-22T10:04:40.238Z,100852.92
2019-04-22T10:07:15.296Z,100847.81
2019-04-22T10:09:59.489Z,100846.15
2019-04-22T10:12:19.255Z,100840.84
2019-04-22T10:14:49.193Z,100836.63
2019-04-22T10:17:17.770Z,100846.94
2019-04-22T10:20:05.583Z,100827.79
2019-04-22T10:22:27.737Z,100823.17
2019-04-22T10:24:57.874Z,100823.37
2019-04-22T10:27:26.175Z,100816.20
2019-04-22T10:30:00.181Z,100814.35
2019-04-22T10:32:33.434Z,100822.45
2019-04-22T10:35:02.686Z,100819.73
2019-04-22T10:37:26.233Z,100805.27
2019-04-22T10:40:01.894Z,100816.72
2019-04-22T10:42:31.288Z,100813.61
2019-04-22T10:45:01.351Z,100805.48
2019-04-22T10:47:32.036Z,100798.50
2019-04-22T10:50:02.701Z,100790.63
2019-04-22T10:52:32.807Z,100801.64
2019-04-22T10:55:03.495Z,100790.66
2019-04-22T10:57:33.896Z,100778.85
2019-04-22T11:00:07.460Z,100784.80
2019-04-22T11:02:37.821Z,100783.83
2019-04-22T11:05:10.320Z,100783.45
2019-04-22T11:07:47.589Z,100766.98
2019-04-22T11:10:27.336Z,100772.31
2019-04-22T11:12:45.201Z,100769.32
2019-04-22T11:15:15.958Z,100761.97
2019-04-22T11:17:47.399Z,100756.63
2019-04-22T11:20:17.745Z,100749.41
2019-04-22T11:22:48.964Z,100737.85
2019-04-22T11:25:19.093Z,100730.45
2019-04-22T11:27:49.424Z,100750.84
2019-04-22T11:30:22.750Z,100742.13
2019-04-22T11:32:51.437Z,100741.72
2019-04-22T11:35:21.832Z,100742.99
2019-04-22T11:37:54.929Z,100729.48
2019-04-22T11:40:34.853Z,100717.90
2019-04-22T11:42:59.663Z,100734.80
2019-04-22T11:45:29.431Z,100728.38
2019-04-22T11:47:59.670Z,100716.52
2019-04-22T11:50:30.917Z,100707.50
2019-04-22T11:53:02.672Z,100714.75
2019-04-22T11:55:32.949Z,100725.41
2019-04-22T11:58:03.471Z,100725.09
2019-04-22T12:00:35.102Z,100716.80
2019-04-22T12:03:07.247Z,100713.50
2019-04-22T12:05:39.609Z,100711.27
2019-04-22T12:08:11.277Z,100711.34
2019-04-22T12:10:49.467Z,100703.09
2019-04-22T12:13:13.524Z,100694.75
2019-04-22T12:15:44.763Z,100699.72
2019-04-22T12:18:15.285Z,100684.29
2019-04-22T12:20:45.651Z,100683.83
2019-04-22T12:23:17.010Z,100686.92
2019-04-22T12:25:54.253Z,100680.41
2019-04-22T12:28:19.394Z,100670.30
2019-04-22T12:30:51.164Z,100667.65
2019-04-22T12:33:23.517Z,100675.34
2019-04-22T12:35:54.754Z,100674.00
2019-04-22T12:38:27.296Z,100673.91
2019-04-22T12:41:01.312Z,100657.52
2019-04-22T12:43:29.914Z,100658.65
2019-04-22T12:46:00.761Z,100660.58
2019-04-22T12:48:31.035Z,100650.72
2019-04-22T12:51:01.122Z,100655.05
2019-04-22T12:53:31.970Z,100637.66
2019-04-22T12:56:02.967Z,100649.14
2019-04-22T12:58:33.873Z,100642.11
2019-04-22T13:01:04.523Z,100649.48
2019-04-22T13:03:40.315Z,100645.32
2019-04-22T13:06:10.127Z,100640.90
2019-04-22T13:08:41.392Z,100634.98
2019-04-22T13:11:15.655Z,100629.63
2019-04-22T13:13:43.041Z,100634.00
2019-04-22T13:16:13.469Z,100624.89
2019-04-22T13:18:53.101Z,100617.48
2019-04-22T13:21:15.797Z,100618.30
2019-04-22T13:23:46.638Z,100610.20
2019-04-22T13:26:17.050Z,100599.09
2019-04-22T13:28:47.377Z,100609.34
2019-04-22T13:31:20.660Z,100613.58
2019-04-22T13:33:52.770Z,100598.85
2019-04-22T13:36:22.703Z,100598.28
2019-04-22T13:38:53.128Z,100592.34
2019-04-22T13:41:33.024Z,100587.84
2019-04-22T13:43:56.072Z,100591.23
2019-04-22T13:46:27.361Z,100588.67
2019-04-22T13:49:27.037Z,100585.16
2019-04-22T13:56:55.122Z,100578.62
2019-04-22T13:59:13.653Z,100570.69
2019-04-22T14:01:46.454Z,100575.31
2019-04-22T14:04:22.634Z,100572.50
2019-04-22T14:06:52.698Z,100571.02
2019-04-22T14:09:24.449Z,100567.63
2019-04-22T14:12:00.205Z,100564.11
2019-04-22T14:14:26.083Z,100557.04
2019-04-22T14:16:55.947Z,100562.37
2019-04-22T14:19:26.111Z,100555.80
2019-04-22T14:21:57.725Z,100559.16
2019-04-22T14:24:28.078Z,100566.59
2019-04-22T14:27:17.472Z,100554.62
2019-04-22T14:29:31.495Z,100547.91
2019-04-22T14:32:10.615Z,100552.84
2019-04-22T14:34:34.194Z,100549.72
2019-04-22T14:37:05.483Z,100542.75
2019-04-22T14:39:35.916Z,100538.27
2019-04-22T14:42:21.748Z,100536.53
2019-04-22T14:47:31.462Z,100535.89
2019-04-22T14:50:06.301Z,100538.59
2019-04-22T14:52:33.501Z,100516.30
2019-04-22T14:54:54.259Z,100538.13
2019-04-22T14:57:16.921Z,100537.95
2019-04-22T14:59:48.283Z,100532.37
2019-04-22T15:02:19.559Z,100518.22
2019-04-22T15:04:50.061Z,100508.23
2019-04-22T15:07:21.096Z,100508.23
2019-04-22T15:09:52.281Z,100507.20
2019-04-22T15:12:33.635Z,100503.12
2019-04-22T15:14:55.388Z,100504.80
2019-04-22T15:17:42.894Z,100505.68
2019-04-22T15:20:27.754Z,100509.02
2019-04-22T15:22:59.086Z,100508.31
2019-04-22T15:25:30.567Z,100492.39
2019-04-22T15:28:01.634Z,100485.42
2019-04-22T15:30:33.386Z,100493.53
2019-04-22T15:33:03.385Z,100494.81
2019-04-22T15:35:33.597Z,100485.53
2019-04-22T15:38:04.787Z,100494.23
2019-04-22T15:40:36.442Z,100496.05
2019-04-22T15:43:06.656Z,100489.13
2019-04-22T15:45:36.861Z,100488.26
2019-04-22T15:48:08.291Z,100480.05
2019-04-22T15:50:38.156Z,100484.20
2019-04-22T15:53:09.659Z,100483.70
2019-04-22T15:55:40.919Z,100482.73
2019-04-22T15:58:11.975Z,100488.09
2019-04-22T16:00:55.373Z,100472.81
2019-04-22T16:03:14.447Z,100479.94
2019-04-22T16:05:45.897Z,100472.52
2019-04-22T16:08:17.148Z,100456.57
2019-04-22T16:10:48.170Z,100479.81
2019-04-22T16:13:23.248Z,100477.39
2019-04-22T16:15:50.082Z,100472.70
2019-04-22T16:18:20.187Z,100474.03
2019-04-22T16:20:50.387Z,100474.90
2019-04-22T16:23:28.214Z,100471.15
2019-04-22T16:26:07.294Z,100485.17
2019-04-22T16:28:37.793Z,100469.45
2019-04-22T16:31:09.083Z,100477.82
2019-04-22T16:33:41.763Z,100467.99
2019-04-22T16:36:12.984Z,100458.97
2019-04-22T16:38:43.116Z,100476.43
2019-04-22T16:41:13.071Z,100455.19
2019-04-22T16:43:42.984Z,100476.23
2019-04-22T16:46:13.856Z,100462.73
2019-04-22T16:48:45.372Z,100464.71
2019-04-22T16:51:16.150Z,100462.62
2019-04-22T16:53:47.527Z,100461.46
2019-04-22T16:56:17.544Z,100456.47
2019-04-22T16:58:48.602Z,100455.73
2019-04-22T17:01:43.626Z,100456.42
2019-04-22T17:04:18.952Z,100458.23
2019-04-22T17:06:49.775Z,100457.64
2019-04-22T17:09:19.856Z,100462.46
2019-04-22T17:11:50.024Z,100462.99
2019-04-22T17:14:29.997Z,100460.97
2019-04-22T17:16:52.783Z,100452.06
2019-04-22T17:19:23.615Z,100461.52
2019-04-22T17:21:55.383Z,100456.47
2019-04-22T17:24:25.789Z,100460.40
2019-04-22T17:26:56.716Z,100451.14
2019-04-22T17:29:26.669Z,100450.86
2019-04-22T17:32:03.900Z,100455.11
2019-04-22T17:34:29.538Z,100444.16
2019-04-22T17:36:59.571Z,100446.86
2019-04-22T17:39:41.996Z,100441.00
2019-04-22T17:42:22.448Z,100439.36
2019-04-22T17:45:19.123Z,100449.88
2019-04-22T17:48:08.631Z,100445.56
2019-04-22T17:50:37.891Z,100445.89
2019-04-22T17:53:17.977Z,100456.09
2019-04-22T17:55:54.131Z,100452.39
2019-04-22T17:58:14.822Z,100458.85
2019-04-22T18:00:39.840Z,100455.62
2019-04-22T18:03:11.231Z,100450.66
2019-04-22T18:05:34.753Z,100453.31
2019-04-22T18:08:17.689Z,100458.11
2019-04-22T18:10:47.383Z,100461.55
2019-04-22T18:13:28.643Z,100461.27
2019-04-22T18:15:54.804Z,100457.54
2019-04-22T18:18:31.427Z,100459.81
2019-04-22T18:20:49.974Z,100458.15
2019-04-22T18:23:14.723Z,100462.75
2019-04-22T18:25:59.137Z,100467.80
2019-04-22T18:28:37.655Z,100457.22
2019-04-22T18:31:03.203Z,100473.86
2019-04-22T18:33:32.834Z,100465.27
2019-04-22T18:36:03.892Z,100466.52
2019-04-22T18:38:48.138Z,100472.84
2019-04-22T18:41:09.832Z,100466.50
2019-04-22T18:43:47.984Z,100470.56
2019-04-22T18:46:19.263Z,100473.30
2019-04-22T18:48:48.103Z,100474.06
2019-04-22T18:51:27.678Z,100473.94
2019-04-22T18:54:18.312Z,100471.49
2019-04-22T18:56:51.017Z,100478.88
2019-04-22T18:59:13.796Z,100494.18
2019-04-22T19:01:35.532Z,100505.05
2019-04-22T19:04:14.122Z,100489.80
2019-04-22T19:07:17.279Z,100499.53
2019-04-22T19:09:45.350Z,100492.55
2019-04-22T19:12:15.195Z,100509.11
2019-04-22T19:14:46.386Z,100509.36
2019-04-22T19:17:21.513Z,100513.91
2019-04-22T19:19:49.846Z,100508.39
2019-04-22T19:22:16.266Z,100520.74
2019-04-22T19:24:45.960Z,100516.39
2019-04-22T19:27:16.219Z,100521.81
2019-04-22T19:29:53.991Z,100531.41
2019-04-22T19:32:23.013Z,100528.94
2019-04-22T19:34:47.756Z,100530.52
2019-04-22T19:37:24.818Z,100537.67
2019-04-22T19:40:04.980Z,100543.08
2019-04-22T19:42:40.835Z,100543.00
2019-04-22T19:45:01.261Z,100516.81
2019-04-22T19:47:38.806Z,100531.42
2019-04-22T19:52:53.555Z,100538.52
2019-04-22T19:55:10.963Z,100546.55
2019-04-22T19:57:42.084Z,100541.02
2019-04-22T20:00:18.405Z,100543.36
2019-04-22T20:03:07.249Z,100542.63
2019-04-22T20:05:43.589Z,100544.99
2019-04-22T20:08:17.825Z,100541.61
2019-04-22T20:10:44.591Z,100545.31
2019-04-22T20:13:20.706Z,100532.80
2019-04-22T20:15:38.735Z,100540.04
2019-04-22T20:18:29.663Z,100543.62
2019-04-22T20:20:52.883Z,100544.92
2019-04-22T20:23:14.477Z,100545.19
2019-04-22T20:25:48.084Z,100538.71
2019-04-22T20:28:25.572Z,100538.75
2019-04-22T20:30:56.221Z,100535.85
2019-04-22T20:36:07.633Z,100526.40
2019-04-22T20:38:32.636Z,100522.49
2019-04-22T20:41:02.019Z,100526.41
2019-04-22T20:43:43.010Z,100512.52
2019-04-22T20:46:13.704Z,100523.02
2019-04-22T20:48:43.889Z,100519.86
2019-04-22T20:51:12.476Z,100517.21
2019-04-22T20:53:46.034Z,100514.94
2019-04-22T20:56:16.802Z,100519.00
2019-04-22T20:58:45.232Z,100512.94
2019-04-22T21:01:11.677Z,100505.60
2019-04-22T21:03:42.010Z,100496.00
2019-04-22T21:06:24.949Z,100500.72
2019-04-22T21:08:54.406Z,100504.66
2019-04-22T21:11:28.443Z,100502.66
2019-04-22T21:13:55.780Z,100490.78
2019-04-22T21:16:34.742Z,100495.98
2019-04-22T21:19:02.774Z,100499.93
2019-04-22T21:21:38.252Z,100499.18
2019-04-22T21:23:57.141Z,100495.38
2019-04-22T21:26:33.612Z,100484.26
2019-04-22T21:29:07.097Z,100482.28
2019-04-22T21:31:38.919Z,100499.09
2019-04-22T21:34:14.928Z,100491.13
2019-04-22T21:36:48.115Z,100500.48
2019-04-22T21:39:14.724Z,100498.47
2019-04-22T21:41:47.634Z,100491.80
2019-04-22T21:44:21.385Z,100492.80
2019-04-22T21:47:09.006Z,100485.23
2019-04-22T21:49:33.333Z,100481.73
2019-04-22T21:51:58.406Z,100477.55
2019-04-22T21:54:34.736Z,100473.00
2019-04-22T21:57:19.209Z,100470.25
2019-04-22T21:59:45.116Z,100469.72
2019-04-22T22:02:16.150Z,100466.19
2019-04-22T22:04:44.591Z,100465.58
2019-04-22T22:07:07.478Z,100461.93
2019-04-22T22:09:54.258Z,100461.03
2019-04-22T22:12:24.273Z,100456.70
2019-04-22T22:15:03.121Z,100455.58
2019-04-22T22:17:28.289Z,100442.97
2019-04-22T22:20:00.285Z,100440.05
2019-04-22T22:25:01.430Z,100433.99
2019-04-22T22:27:37.555Z,100434.61
2019-04-22T22:30:24.884Z,100425.54
2019-04-22T22:32:42.308Z,100434.02
2019-04-22T22:35:06.739Z,100429.06
2019-04-22T22:37:28.352Z,100404.36
2019-04-22T22:40:01.267Z,100423.91
2019-04-22T22:42:31.281Z,100419.87
2019-04-22T22:45:07.838Z,100410.02
2019-04-22T22:47:44.212Z,100415.44
2019-04-22T22:50:25.244Z,100414.45
2019-04-22T22:52:59.297Z,100411.17
2019-04-22T22:55:24.809Z,100385.66
2019-04-22T22:57:58.357Z,100404.23
2019-04-22T23:00:24.534Z,100411.16
2019-04-22T23:03:23.287Z,100406.36
2019-04-22T23:05:43.568Z,100406.13
2019-04-22T23:08:07.732Z,100400.31
2019-04-22T23:10:48.067Z,100396.50
2019-04-22T23:13:16.811Z,100395.48
2019-04-22T23:15:37.090Z,100397.77
2019-04-22T23:17:54.121Z,100392.08
2019-04-22T23:20:31.432Z,100390.20
2019-04-22T23:25:56.690Z,100384.64
2019-04-22T23:28:29.780Z,100379.20
2019-04-22T23:31:14.099Z,100377.58
2019-04-22T23:33:56.110Z,100376.07
2019-04-22T23:36:57.564Z,100370.75
2019-04-22T23:39:33.863Z,100372.78
2019-04-22T23:42:06.429Z,100367.98
2019-04-22T23:44:39.846Z,100356.36
2019-04-22T23:47:08.418Z,100360.80
2019-04-22T23:49:34.859Z,100366.45
2019-04-22T23:52:28.907Z,100355.34
2019-04-22T23:54:51.742Z,100357.62
2019-04-22T23:57:24.097Z,100355.35
2019-04-22T23:59:57.081Z,100350.03
